Time;durP1;ratioP1;P1;durP2;ratioP2;P2;SDS_P1;SDS_P2;PMS_P1;PMS_P2;Temp;Humidity;BMP_temperature;BMP_pressure;BME280_temperature;BME280_humidity;BME280_pressure;Samples;Min_cycle;Max_cycle;Signal;HPM_P1;HPM_P2
2023/09/25 00:00:49;;;;;;;1235.63;551.87;;;11.10;99.90;;;;;;6214783;23;20039;-82
2023/09/25 00:03:15;;;;;;;1240.27;549.57;;;11.60;99.90;;;;;;6214529;23;20099;-82
2023/09/25 00:05:41;;;;;;;1151.63;473.67;;;11.10;99.90;;;;;;6165076;23;20077;-82
2023/09/25 00:08:07;;;;;;;1243.87;550.53;;;11.10;99.90;;;;;;6216676;23;20016;-82
2023/09/25 00:10:32;;;;;;;1225.67;527.10;;;11.30;99.90;;;;;;6216674;23;20008;-82
2023/09/25 00:12:59;;;;;;;1153.90;474.00;;;11.20;99.90;;;;;;6216917;23;20060;-84
2023/09/25 00:15:25;;;;;;;1242.00;542.30;;;11.20;99.90;;;;;;6189552;23;20040;-82
2023/09/25 00:17:51;;;;;;;1174.03;482.30;;;11.20;99.90;;;;;;6216694;23;20017;-83
2023/09/25 00:20:20;;;;;;;1272.43;548.20;;;11.70;99.90;;;;;;6190117;23;20027;-83
2023/09/25 00:22:46;;;;;;;1195.97;489.43;;;11.30;99.90;;;;;;6216908;23;20019;-82
2023/09/25 00:25:12;;;;;;;1205.97;491.27;;;11.90;99.90;;;;;;6190192;23;20013;-82
2023/09/25 00:27:38;;;;;;;1284.43;549.10;;;12.10;99.90;;;;;;6164892;23;20099;-83
2023/09/25 00:30:08;;;;;;;1287.03;555.40;;;11.40;99.90;;;;;;6216751;23;20012;-83
2023/09/25 00:32:35;;;;;;;1186.93;489.00;;;11.50;99.90;;;;;;6214636;23;20343;-82
2023/09/25 00:35:05;;;;;;;1276.87;558.10;;;11.50;99.90;;;;;;6216292;23;20107;-82
2023/09/25 00:37:31;;;;;;;1268.73;539.70;;;11.50;99.90;;;;;;6189483;23;20451;-83
2023/09/25 00:39:58;;;;;;;1183.13;486.23;;;11.50;99.90;;;;;;6190103;23;20070;-82
2023/09/25 00:42:26;;;;;;;1184.83;491.03;;;12.10;99.90;;;;;;6216465;23;20020;-82
2023/09/25 00:44:52;;;;;;;1273.33;545.13;;;12.00;99.90;;;;;;6216621;23;20023;-83
2023/09/25 00:47:18;;;;;;;1197.17;492.93;;;12.20;99.90;;;;;;6216627;23;20434;-83
2023/09/25 00:49:44;;;;;;;1298.07;557.17;;;12.10;99.90;;;;;;6216644;23;20025;-82
2023/09/25 00:52:11;;;;;;;1302.30;564.97;;;11.60;99.90;;;;;;6164794;23;20112;-82
2023/09/25 00:54:37;;;;;;;1216.20;495.90;;;12.30;99.90;;;;;;6216441;23;20012;-82
2023/09/25 00:57:03;;;;;;;1327.90;573.90;;;11.60;99.90;;;;;;6214712;23;20374;-83
2023/09/25 00:59:29;;;;;;;1234.00;501.57;;;11.60;99.90;;;;;;6216351;23;20047;-83
2023/09/25 01:01:54;;;;;;;1225.23;497.90;;;12.20;99.90;;;;;;6216377;23;20056;-82
2023/09/25 01:04:24;;;;;;;1225.70;498.27;;;12.10;99.90;;;;;;6216033;23;20079;-82
2023/09/25 01:06:50;;;;;;;1316.00;566.43;;;12.10;99.90;;;;;;6189740;23;20019;-83
2023/09/25 01:09:16;;;;;;;1218.00;493.47;;;11.70;99.90;;;;;;6216438;23;20370;-82
2023/09/25 01:11:42;;;;;;;1227.77;502.67;;;12.20;99.90;;;;;;6216368;23;20008;-83
2023/09/25 01:14:09;;;;;;;1318.53;564.60;;;12.00;99.90;;;;;;6189699;23;20092;-82
2023/09/25 01:16:36;;;;;;;1230.17;497.27;;;11.60;99.90;;;;;;6215578;23;20017;-83
2023/09/25 01:19:05;;;;;;;1307.77;551.30;;;12.00;99.90;;;;;;6189199;23;20350;-83
2023/09/25 01:21:33;;;;;;;1193.60;493.63;;;12.20;99.90;;;;;;6216179;23;20024;-84
2023/09/25 01:23:59;;;;;;;1299.90;552.23;;;12.20;99.90;;;;;;6216286;23;20055;-82
2023/09/25 01:26:25;;;;;;;1237.97;498.97;;;11.90;99.90;;;;;;6216166;23;20075;-82
2023/09/25 01:28:51;;;;;;;1254.53;499.63;;;11.80;99.90;;;;;;6216147;23;20378;-82
2023/09/25 01:31:16;;;;;;;1259.50;510.80;;;12.10;99.90;;;;;;6216244;23;20390;-82
2023/09/25 01:33:42;;;;;;;1327.00;574.00;;;11.40;99.90;;;;;;6216209;23;20042;-83
2023/09/25 01:36:11;;;;;;;1216.47;499.13;;;11.40;99.90;;;;;;6215812;23;20070;-83
2023/09/25 01:38:37;;;;;;;1223.70;493.07;;;11.50;99.90;;;;;;6215955;23;20480;-82
2023/09/25 01:41:03;;;;;;;1228.07;499.90;;;11.30;99.90;;;;;;6216095;23;20440;-82
2023/09/25 01:43:29;;;;;;;1215.50;499.60;;;11.30;99.90;;;;;;6216223;23;20009;-82
2023/09/25 01:45:55;;;;;;;1230.83;503.77;;;12.00;99.90;;;;;;6215920;23;20092;-81
2023/09/25 01:48:21;;;;;;;1326.53;567.17;;;11.80;99.90;;;;;;6188806;23;20027;-82
2023/09/25 01:50:46;;;;;;;1246.37;506.40;;;11.30;99.90;;;;;;6216262;23;20016;-81
2023/09/25 01:53:12;;;;;;;1242.70;507.60;;;11.30;99.90;;;;;;6216169;23;20019;-81
2023/09/25 01:55:40;;;;;;;1240.57;501.03;;;11.40;99.90;;;;;;6216249;23;20027;-82
2023/09/25 01:58:06;;;;;;;1317.43;563.17;;;11.80;99.90;;;;;;6215818;23;20024;-82
2023/09/25 02:00:32;;;;;;;1234.83;504.73;;;11.20;99.90;;;;;;6189295;23;20447;-82
2023/09/25 02:02:59;;;;;;;1310.10;565.70;;;11.40;99.90;;;;;;6215579;23;20013;-82
2023/09/25 02:05:24;;;;;;;1208.00;498.97;;;11.50;99.90;;;;;;6214490;23;20012;-82
2023/09/25 02:07:50;;;;;;;1290.60;542.07;;;11.30;99.90;;;;;;6189204;23;20146;-82
2023/09/25 02:10:16;;;;;;;1211.60;492.80;;;11.30;99.90;;;;;;6216887;23;20471;-81
2023/09/25 02:12:42;;;;;;;1216.67;496.30;;;11.70;99.90;;;;;;6216943;23;20063;-81
2023/09/25 02:15:08;;;;;;;1210.27;489.87;;;11.10;99.90;;;;;;6217157;23;20059;-82
2023/09/25 02:17:35;;;;;;;1280.90;539.23;;;11.00;99.90;;;;;;6217074;23;20017;-82
2023/09/25 02:20:17;;;;;;;1191.37;487.10;;;11.00;99.90;;;;;;6216925;23;20067;-82
2023/09/25 02:22:44;;;;;;;1195.87;486.93;;;11.60;99.90;;;;;;6190923;23;20343;-82
2023/09/25 02:25:10;;;;;;;1184.60;484.60;;;11.10;99.90;;;;;;6217789;23;20074;-81
2023/09/25 02:27:36;;;;;;;1178.73;480.60;;;11.00;99.90;;;;;;6218367;23;20448;-82
2023/09/25 02:30:03;;;;;;;1270.30;553.67;;;11.30;99.90;;;;;;6218051;23;20099;-82
2023/09/25 02:32:28;;;;;;;1189.00;489.07;;;10.90;99.90;;;;;;6191498;23;20013;-82
2023/09/25 02:34:54;;;;;;;1275.43;539.47;;;11.10;99.90;;;;;;6218407;23;20027;-82
2023/09/25 02:37:20;;;;;;;1177.10;486.50;;;11.80;99.90;;;;;;6166466;23;20021;-82
2023/09/25 02:39:46;;;;;;;1274.63;549.53;;;11.20;99.90;;;;;;6192103;23;20466;-81
2023/09/25 02:42:11;;;;;;;1247.53;541.30;;;10.90;99.90;;;;;;6191792;23;20013;-81
2023/09/25 02:44:37;;;;;;;1156.68;480.27;;;10.90;99.90;;;;;;6191454;23;20858;-82
2023/09/25 02:47:03;;;;;;;1171.40;480.73;;;11.60;99.90;;;;;;6218552;23;20017;-82
2023/09/25 02:49:29;;;;;;;1267.23;547.00;;;11.00;99.90;;;;;;6224783;23;20388;-81
2023/09/25 02:51:54;;;;;;;1269.10;546.63;;;11.00;99.90;;;;;;6199846;23;20013;-81
2023/09/25 02:54:20;;;;;;;1245.60;536.77;;;11.80;99.90;;;;;;6226770;23;20051;-82
2023/09/25 02:56:46;;;;;;;1257.27;546.07;;;11.10;99.90;;;;;;6222431;23;20020;-82
2023/09/25 02:59:14;;;;;;;1162.50;479.27;;;11.70;99.90;;;;;;6247585;23;20012;-82
2023/09/25 03:01:40;;;;;;;1255.57;546.83;;;11.70;99.90;;;;;;6248045;23;20026;-82
2023/09/25 03:04:06;;;;;;;1244.73;536.97;;;11.20;99.90;;;;;;6244056;22;20016;-82
2023/09/25 03:06:31;;;;;;;1246.60;537.60;;;11.90;99.90;;;;;;6245165;23;20008;-82
2023/09/25 03:08:57;;;;;;;1164.60;480.63;;;11.80;99.90;;;;;;6249397;23;20070;-81
2023/09/25 03:11:24;;;;;;;1243.80;537.23;;;11.40;99.90;;;;;;6249487;23;20411;-82
2023/09/25 03:13:50;;;;;;;1145.03;471.90;;;11.40;99.90;;;;;;6247866;22;20024;-82
2023/09/25 03:16:17;;;;;;;1134.20;475.23;;;12.10;99.90;;;;;;6244258;23;20083;-82
2023/09/25 03:18:43;;;;;;;1135.57;476.17;;;12.00;99.90;;;;;;6245751;22;20047;-82
2023/09/25 03:21:13;;;;;;;1132.93;471.37;;;11.70;99.90;;;;;;6245727;23;20343;-81
2023/09/25 03:23:40;;;;;;;1212.17;528.40;;;11.20;99.90;;;;;;6244149;23;20084;-83
2023/09/25 03:26:16;;;;;;;1200.07;542.20;;;10.90;99.90;;;;;;6245539;22;20473;-81
2023/09/25 03:28:42;;;;;;;1085.55;463.30;;;11.20;99.90;;;;;;6245700;22;20087;-82
2023/09/25 03:31:08;;;;;;;1177.07;521.80;;;11.30;99.90;;;;;;6243708;23;20024;-81
2023/09/25 03:33:34;;;;;;;1192.53;540.25;;;11.20;99.90;;;;;;6245020;23;20320;-81
2023/09/25 03:36:00;;;;;;;1082.07;458.05;;;11.70;99.90;;;;;;6245492;23;20070;-81
2023/09/25 03:38:26;;;;;;;1102.35;464.25;;;12.00;99.90;;;;;;6243376;23;20050;-81
2023/09/25 03:40:51;;;;;;;1088.13;461.85;;;11.10;99.90;;;;;;6245248;23;20020;-82
2023/09/25 03:43:17;;;;;;;1179.33;531.57;;;11.40;99.90;;;;;;6245413;23;20008;-82
2023/09/25 03:45:43;;;;;;;1183.33;532.20;;;11.40;99.90;;;;;;6245684;23;20024;-81
2023/09/25 03:48:09;;;;;;;1183.63;531.87;;;11.90;99.90;;;;;;6246115;23;20020;-82
2023/09/25 03:50:34;;;;;;;1099.38;459.83;;;11.60;99.90;;;;;;6245719;23;20016;-82
2023/09/25 03:53:02;;;;;;;1208.57;542.97;;;11.10;99.90;;;;;;6247133;23;20020;-82
2023/09/25 03:55:28;;;;;;;1082.22;455.88;;;11.30;99.90;;;;;;6247463;22;20027;-82
2023/09/25 03:57:54;;;;;;;1080.22;456.88;;;11.10;99.90;;;;;;6245335;23;20016;-81
2023/09/25 04:00:20;;;;;;;1173.97;523.87;;;11.10;99.90;;;;;;6245425;23;20024;-81
2023/09/25 04:02:46;;;;;;;1156.90;519.58;;;11.10;99.90;;;;;;6247616;23;20019;-82
2023/09/25 04:05:12;;;;;;;1172.43;523.07;;;10.90;99.90;;;;;;6245174;23;20020;-81
2023/09/25 04:07:38;;;;;;;1087.93;458.00;;;11.10;99.90;;;;;;6245354;23;20045;-82
2023/09/25 04:10:07;;;;;;;1061.70;455.88;;;11.10;99.90;;;;;;6245427;23;20020;-82
2023/09/25 04:12:36;;;;;;;1163.37;518.93;;;11.10;99.90;;;;;;6247042;22;20419;-82
2023/09/25 04:15:04;;;;;;;1053.72;455.27;;;11.10;99.90;;;;;;6245177;23;20506;-83
2023/09/25 04:17:33;;;;;;;1058.27;453.37;;;11.10;99.90;;;;;;6245256;23;20016;-82
2023/09/25 04:20:01;;;;;;;1165.15;519.45;;;11.40;99.90;;;;;;6247135;22;20073;-83
2023/09/25 04:22:27;;;;;;;1180.77;534.77;;;11.30;99.90;;;;;;6246934;23;20065;-82
2023/09/25 04:24:53;;;;;;;1165.30;523.97;;;11.50;99.90;;;;;;6246878;22;20054;-81
2023/09/25 04:27:18;;;;;;;1170.28;526.67;;;11.10;99.90;;;;;;6247099;23;20086;-82
2023/09/25 04:29:44;;;;;;;1042.55;458.80;;;11.80;99.90;;;;;;6245347;23;20020;-83
2023/09/25 04:32:10;;;;;;;1149.07;526.63;;;11.90;99.90;;;;;;6246932;22;20020;-82
2023/09/25 04:34:36;;;;;;;1045.53;454.48;;;11.30;99.90;;;;;;6247144;22;20012;-82
2023/09/25 04:37:03;;;;;;;1060.38;454.67;;;12.00;99.90;;;;;;6246785;22;20060;-81
2023/09/25 04:39:32;;;;;;;1066.68;459.40;;;11.20;99.90;;;;;;6246607;22;20050;-82
2023/09/25 04:41:59;;;;;;;1185.90;548.67;;;11.70;99.90;;;;;;6246734;22;20020;-82
2023/09/25 04:44:25;;;;;;;1047.57;465.15;;;11.20;99.90;;;;;;6247391;22;20316;-82
2023/09/25 04:46:51;;;;;;;1150.20;535.42;;;11.30;99.90;;;;;;6245076;23;20026;-83
2023/09/25 04:49:18;;;;;;;1037.38;461.58;;;11.60;99.90;;;;;;6247188;22;20012;-82
2023/09/25 04:51:43;;;;;;;1062.93;459.70;;;11.20;99.90;;;;;;6245950;22;20016;-81
2023/09/25 04:54:10;;;;;;;1188.93;534.73;;;11.40;99.90;;;;;;6244898;23;20020;-82
2023/09/25 04:56:36;;;;;;;1063.93;457.05;;;11.50;99.90;;;;;;6246727;22;20077;-82
2023/09/25 04:59:03;;;;;;;1149.73;517.67;;;11.80;99.90;;;;;;6221872;22;20071;-82
2023/09/25 05:01:29;;;;;;;1042.25;464.02;;;11.20;99.90;;;;;;6189424;23;20079;-82
2023/09/25 05:03:54;;;;;;;1047.00;459.65;;;11.20;99.90;;;;;;6189612;23;20371;-82
2023/09/25 05:06:20;;;;;;;1043.10;460.17;;;11.20;99.90;;;;;;6216476;23;20354;-82
2023/09/25 05:08:46;;;;;;;1162.03;527.27;;;11.90;99.90;;;;;;6215999;23;20013;-83
2023/09/25 05:11:11;;;;;;;1052.57;463.40;;;11.20;99.90;;;;;;6216281;23;20335;-82
2023/09/25 05:13:37;;;;;;;1157.43;518.37;;;11.90;99.90;;;;;;6216109;23;20110;-82
2023/09/25 05:16:03;;;;;;;1055.05;460.15;;;11.20;99.90;;;;;;6189252;23;20027;-83
2023/09/25 05:18:29;;;;;;;1161.43;528.97;;;11.20;99.90;;;;;;6216550;23;20309;-83
2023/09/25 05:20:57;;;;;;;1165.03;530.93;;;11.20;99.90;;;;;;6189412;23;20183;-82
2023/09/25 05:23:23;;;;;;;1173.23;540.03;;;11.20;99.90;;;;;;6216255;23;20015;-82
2023/09/25 05:25:49;;;;;;;1054.05;459.80;;;11.20;99.90;;;;;;6189336;23;20059;-82
2023/09/25 05:28:15;;;;;;;1046.30;457.08;;;11.60;99.90;;;;;;6216040;23;20478;-83
2023/09/25 05:30:41;;;;;;;1059.00;459.77;;;11.20;99.90;;;;;;6215756;23;20017;-82
2023/09/25 05:33:06;;;;;;;1162.10;537.27;;;11.40;99.90;;;;;;6215724;23;20055;-83
2023/09/25 05:35:32;;;;;;;1152.95;526.25;;;11.80;99.90;;;;;;6164290;23;20020;-83
2023/09/25 05:37:58;;;;;;;1153.10;522.97;;;11.80;99.90;;;;;;6215806;23;20486;-82
2023/09/25 05:40:23;;;;;;;1048.68;456.42;;;11.10;99.90;;;;;;6215690;23;20016;-82
2023/09/25 05:42:50;;;;;;;1037.43;449.30;;;11.10;99.90;;;;;;6216057;23;20017;-81
2023/09/25 05:45:22;;;;;;;1044.30;458.58;;;11.10;99.90;;;;;;6215889;23;20047;-82
2023/09/25 05:47:48;;;;;;;1049.45;455.88;;;11.20;99.90;;;;;;6188885;23;20013;-82
2023/09/25 05:50:13;;;;;;;1171.10;545.33;;;11.10;99.90;;;;;;6188800;23;20055;-81
2023/09/25 05:52:40;;;;;;;1157.50;531.53;;;11.20;99.90;;;;;;6188908;23;20119;-81
2023/09/25 05:55:06;;;;;;;1162.30;532.07;;;11.10;99.90;;;;;;6164173;23;20051;-81
2023/09/25 05:57:33;;;;;;;1045.65;464.65;;;11.20;99.90;;;;;;6215734;23;20020;-80
2023/09/25 06:00:03;;;;;;;1047.45;461.00;;;11.80;99.90;;;;;;6215632;23;20013;-81
2023/09/25 06:02:33;;;;;;;1157.13;520.00;;;11.20;99.90;;;;;;6215758;23;20017;-81
2023/09/25 06:04:59;;;;;;;1056.87;458.23;;;11.30;99.90;;;;;;6215990;23;20020;-81
2023/09/25 06:07:24;;;;;;;1052.28;456.85;;;11.70;99.90;;;;;;6188654;23;20020;-79
2023/09/25 06:09:50;;;;;;;1058.22;455.83;;;11.50;99.90;;;;;;6163991;23;20028;-83
2023/09/25 06:12:16;;;;;;;1160.43;524.08;;;11.40;99.90;;;;;;6189108;23;20020;-82
2023/09/25 06:14:42;;;;;;;1072.47;464.80;;;12.10;99.90;;;;;;6215369;23;20025;-80
2023/09/25 06:17:09;;;;;;;1169.53;526.87;;;11.80;99.90;;;;;;6215958;23;20028;-84
2023/09/25 06:19:36;;;;;;;1177.77;526.90;;;11.40;99.90;;;;;;6189007;23;20091;-82
2023/09/25 06:22:02;;;;;;;1194.33;542.20;;;11.50;99.90;;;;;;6216208;23;20095;-84
2023/09/25 06:24:28;;;;;;;1089.82;466.85;;;12.10;99.90;;;;;;6190335;23;20340;-82
2023/09/25 06:26:53;;;;;;;1187.77;534.90;;;11.90;99.90;;;;;;6190642;23;20016;-82
2023/09/25 06:29:21;;;;;;;1087.93;467.85;;;11.60;99.90;;;;;;6218682;23;20058;-81
2023/09/25 06:31:47;;;;;;;1184.77;539.43;;;12.10;99.90;;;;;;6191159;23;20023;-84
2023/09/25 06:34:13;;;;;;;1199.63;546.23;;;12.30;99.90;;;;;;6216288;23;20099;-83
2023/09/25 06:36:39;;;;;;;1197.87;550.37;;;11.90;99.90;;;;;;6215865;23;20110;-80
2023/09/25 06:39:09;;;;;;;1189.20;539.50;;;11.90;99.90;;;;;;6188813;23;20020;-80
2023/09/25 06:41:43;;;;;;;1083.10;471.17;;;11.90;99.90;;;;;;6215855;23;20017;-87
2023/09/25 06:44:09;;;;;;;1082.70;469.98;;;12.50;99.90;;;;;;6215917;23;20055;-82
2023/09/25 06:46:35;;;;;;;1185.70;546.45;;;11.90;99.90;;;;;;6215957;23;20017;-82
2023/09/25 06:49:01;;;;;;;1207.57;559.43;;;12.70;99.90;;;;;;6216026;23;20064;-82
2023/09/25 06:51:31;;;;;;;1188.50;537.58;;;12.10;99.90;;;;;;6215430;23;20032;-84
2023/09/25 06:53:57;;;;;;;1208.60;556.35;;;12.10;99.90;;;;;;6215786;23;20013;-83
2023/09/25 06:56:23;;;;;;;1188.87;544.90;;;12.70;99.90;;;;;;6215386;23;20075;-82
2023/09/25 06:58:48;;;;;;;1202.17;555.67;;;12.50;99.90;;;;;;6218362;23;20335;-81
2023/09/25 07:01:14;;;;;;;1112.07;473.40;;;12.20;99.90;;;;;;6215709;23;20118;-81
2023/09/25 07:03:40;;;;;;;1108.75;473.60;;;12.60;99.90;;;;;;6188477;23;20108;-81
2023/09/25 07:06:06;;;;;;;1220.77;566.10;;;12.30;99.90;;;;;;6188236;23;20451;-82
2023/09/25 07:08:32;;;;;;;1114.10;473.70;;;12.30;99.90;;;;;;6215032;23;20021;-81
2023/09/25 07:10:58;;;;;;;1216.60;564.33;;;12.30;99.90;;;;;;6188483;23;20509;-81
2023/09/25 07:13:24;;;;;;;1217.60;557.07;;;12.40;99.90;;;;;;6215108;23;20017;-81
2023/09/25 07:15:50;;;;;;;1224.53;554.95;;;12.40;99.90;;;;;;6188150;23;20020;-80
2023/09/25 07:18:17;;;;;;;1118.20;468.02;;;12.40;99.90;;;;;;6188531;23;20020;-80
2023/09/25 07:20:45;;;;;;;1128.90;471.98;;;12.50;99.90;;;;;;6188082;23;20343;-80
2023/09/25 07:23:11;;;;;;;1129.72;478.08;;;13.00;99.90;;;;;;6215215;23;20059;-79
2023/09/25 07:25:37;;;;;;;1231.13;575.42;;;13.20;99.90;;;;;;6188463;23;20021;-78
2023/09/25 07:28:03;;;;;;;1251.75;582.15;;;13.10;99.90;;;;;;6215279;23;20324;-81
2023/09/25 07:30:29;;;;;;;1257.13;576.00;;;12.70;99.90;;;;;;6215154;23;20016;-83
2023/09/25 07:32:55;;;;;;;1277.90;584.45;;;13.20;99.90;;;;;;6188747;23;20328;-81
2023/09/25 07:35:21;;;;;;;1287.20;589.60;;;12.80;99.90;;;;;;6213633;23;20099;-80
2023/09/25 07:37:47;;;;;;;1287.93;578.83;;;12.90;99.90;;;;;;6188478;23;20044;-81
2023/09/25 07:40:14;;;;;;;1300.23;592.37;;;13.00;99.90;;;;;;6215186;23;20095;-80
2023/09/25 07:42:42;;;;;;;1300.97;595.67;;;13.50;99.90;;;;;;6214503;23;20439;-81
2023/09/25 07:45:11;;;;;;;1190.97;490.50;;;13.30;99.90;;;;;;6214969;23;20028;-80
2023/09/25 07:47:41;;;;;;;1184.28;495.27;;;13.20;99.90;;;;;;6215204;23;20020;-82
2023/09/25 07:50:10;;;;;;;1136.97;484.20;;;13.30;99.90;;;;;;6215268;23;20035;-81
2023/09/25 07:52:42;;;;;;;1260.35;590.25;;;13.40;99.90;;;;;;6188223;23;20435;-82
2023/09/25 07:55:10;;;;;;;1237.50;588.00;;;13.60;99.90;;;;;;6214721;23;20028;-79
2023/09/25 07:57:42;;;;;;;1203.57;584.83;;;13.70;99.90;;;;;;6214825;23;20012;-81
2023/09/25 08:00:44;;;;;;;1195.75;588.40;;;13.90;99.90;;;;;;6214937;23;20067;-82
2023/09/25 08:03:00;;;;;;;1073.10;492.02;;;13.90;99.90;;;;;;6209701;23;20021;-80
2023/09/25 08:05:28;;;;;;;1168.18;596.75;;;13.90;99.90;;;;;;6188182;23;20091;-81
2023/09/25 08:07:54;;;;;;;1153.78;609.53;;;14.00;99.90;;;;;;6188033;23;20470;-80
2023/09/25 08:10:19;;;;;;;1030.60;492.48;;;14.10;99.90;;;;;;6214854;23;20020;-81
2023/09/25 08:12:48;;;;;;;1022.33;491.95;;;14.10;99.90;;;;;;6215080;23;20499;-82
2023/09/25 08:15:14;;;;;;;1135.15;620.25;;;14.10;99.90;;;;;;6215066;23;20040;-82
2023/09/25 08:17:45;;;;;;;1030.75;495.02;;;14.50;99.90;;;;;;6214508;23;20056;-81
2023/09/25 08:20:17;;;;;;;1010.83;490.77;;;14.60;99.90;;;;;;6188503;23;20382;-81
2023/09/25 08:22:43;;;;;;;1118.88;629.40;;;14.30;99.90;;;;;;6215127;23;20017;-81
2023/09/25 08:25:09;;;;;;;1126.00;631.88;;;14.30;99.90;;;;;;6215230;23;20013;-82
2023/09/25 08:27:36;;;;;;;1033.63;501.10;;;14.40;99.90;;;;;;6216508;23;20081;-82
2023/09/25 08:30:04;;;;;;;1143.55;621.58;;;14.50;99.90;;;;;;6216575;23;20118;-83
2023/09/25 08:32:31;;;;;;;1169.72;628.38;;;14.60;99.90;;;;;;6189654;23;20048;-81
2023/09/25 08:35:00;;;;;;;1172.32;634.38;;;15.10;99.90;;;;;;6189502;23;20043;-81
2023/09/25 08:37:25;;;;;;;1208.05;622.25;;;14.70;99.90;;;;;;6216737;23;20296;-81
2023/09/25 08:39:52;;;;;;;1227.57;639.85;;;14.80;99.90;;;;;;6216860;23;20051;-81
2023/09/25 08:42:24;;;;;;;1209.90;635.75;;;15.30;99.90;;;;;;6216592;23;20043;-83
2023/09/25 08:44:56;;;;;;;1178.78;632.72;;;15.00;99.90;;;;;;6216804;23;20008;-82
2023/09/25 08:47:22;;;;;;;1217.68;643.65;;;15.10;99.90;;;;;;6216279;23;20511;-82
2023/09/25 08:49:51;;;;;;;1230.97;639.13;;;15.20;99.90;;;;;;6216662;23;20013;-81
2023/09/25 08:52:18;;;;;;;1085.13;509.42;;;15.80;99.90;;;;;;6216849;23;20331;-82
2023/09/25 08:54:46;;;;;;;1087.70;522.70;;;15.50;99.90;;;;;;6189757;23;20458;-82
2023/09/25 08:57:12;;;;;;;1224.88;654.13;;;15.60;99.90;;;;;;6216626;23;20013;-82
2023/09/25 08:59:39;;;;;;;1083.50;521.88;;;15.70;99.90;;;;;;6216233;23;20087;-82
2023/09/25 09:02:08;;;;;;;1089.28;518.42;;;16.20;99.90;;;;;;6189545;23;20017;-81
2023/09/25 09:04:35;;;;;;;1102.18;532.05;;;16.00;99.90;;;;;;6189818;23;20036;-81
2023/09/25 09:07:01;;;;;;;1245.47;663.05;;;16.10;99.90;;;;;;6216128;23;20083;-81
2023/09/25 09:09:27;;;;;;;1290.63;647.15;;;16.20;99.90;;;;;;6216301;23;20021;-81
2023/09/25 09:11:53;;;;;;;1185.50;533.83;;;16.40;99.90;;;;;;6189468;23;20016;-84
2023/09/25 09:14:39;;;;;;;1324.93;665.70;;;16.40;99.90;;;;;;6189438;23;20048;-82
2023/09/25 09:17:06;;;;;;;1197.30;534.95;;;16.50;99.90;;;;;;6189282;23;20459;-81
2023/09/25 09:19:49;;;;;;;1346.20;671.05;;;16.70;99.90;;;;;;6216432;23;20423;-81
2023/09/25 09:22:16;;;;;;;1218.53;540.70;;;16.80;99.90;;;;;;6189592;23;20400;-81
2023/09/25 09:24:43;;;;;;;1227.05;542.85;;;17.10;99.90;;;;;;6216503;23;20024;-82
2023/09/25 09:27:11;;;;;;;1244.75;540.03;;;17.00;99.90;;;;;;6216447;23;20142;-82
2023/09/25 09:29:38;;;;;;;1245.10;542.70;;;17.10;99.90;;;;;;6189675;23;20467;-81
2023/09/25 09:32:05;;;;;;;1378.28;689.75;;;17.10;99.90;;;;;;6215419;23;20017;-80
2023/09/25 09:34:32;;;;;;;1260.72;546.92;;;17.20;99.90;;;;;;6216051;23;20502;-79
2023/09/25 09:36:58;;;;;;;1402.78;715.13;;;17.20;99.90;;;;;;6215197;23;20017;-81
2023/09/25 09:39:34;;;;;;;1284.53;541.67;;;17.30;99.90;;;;;;6189381;23;20017;-82
2023/09/25 09:42:03;;;;;;;1418.17;705.90;;;17.50;99.90;;;;;;6189192;23;20386;-81
2023/09/25 09:44:30;;;;;;;1320.55;553.53;;;17.40;99.90;;;;;;6189227;23;20325;-81
2023/09/25 09:46:56;;;;;;;1429.97;712.13;;;17.50;99.90;;;;;;6215643;23;20032;-80
2023/09/25 09:49:24;;;;;;;1324.40;558.28;;;17.60;99.90;;;;;;6216149;23;20012;-82
2023/09/25 09:51:51;;;;;;;1426.95;729.78;;;17.70;99.90;;;;;;6215359;23;20809;-81
2023/09/25 09:54:24;;;;;;;1338.10;566.65;;;17.80;99.90;;;;;;6189540;23;20016;-81
2023/09/25 09:56:50;;;;;;;1442.20;728.93;;;17.90;99.90;;;;;;6215486;23;20444;-82
2023/09/25 09:59:16;;;;;;;1374.43;577.78;;;18.00;99.90;;;;;;6215569;23;20020;-84
2023/09/25 10:01:44;;;;;;;1355.90;573.45;;;18.10;99.90;;;;;;6215810;23;20047;-81
2023/09/25 10:04:11;;;;;;;1338.50;565.00;;;18.20;99.90;;;;;;6188730;23;20020;-81
2023/09/25 10:07:04;;;;;;;1438.05;732.60;;;18.30;99.90;;;;;;6189256;23;20017;-82
2023/09/25 10:09:30;;;;;;;1446.72;736.47;;;18.30;99.90;;;;;;6215996;23;20020;-84
2023/09/25 10:11:58;;;;;;;1373.07;586.83;;;18.40;99.90;;;;;;6215708;23;20383;-80
2023/09/25 10:14:25;;;;;;;1443.47;740.83;;;18.50;99.90;;;;;;6215537;23;20578;-80
2023/09/25 10:17:03;;;;;;;1436.78;744.80;;;18.60;99.90;;;;;;6215655;23;20021;-80
2023/09/25 10:19:40;;;;;;;1349.03;586.85;;;18.70;99.90;;;;;;6216033;23;20012;-79
2023/09/25 10:22:20;;;;;;;1365.18;591.05;;;18.80;99.90;;;;;;6163726;23;20013;-81
2023/09/25 10:24:58;;;;;;;1451.20;747.40;;;18.80;99.90;;;;;;6188859;23;20100;-81
2023/09/25 10:27:24;;;;;;;1438.90;747.87;;;18.90;99.90;;;;;;6188758;23;20088;-84
2023/09/25 10:30:12;;;;;;;1439.50;754.97;;;19.10;99.90;;;;;;6188738;23;20031;-82
2023/09/25 10:32:49;;;;;;;1433.20;741.87;;;19.10;99.90;;;;;;6188614;23;20016;-81
2023/09/25 10:35:37;;;;;;;1436.07;753.80;;;19.30;99.90;;;;;;6189336;23;20347;-82
2023/09/25 10:38:10;;;;;;;1469.43;622.67;;;19.40;99.90;;;;;;6215284;23;20328;-82
2023/09/25 10:40:39;;;;;;;1434.60;753.33;;;19.50;99.90;;;;;;6215803;23;20040;-82
2023/09/25 10:43:05;;;;;;;1439.27;762.17;;;19.50;99.90;;;;;;6188465;23;20024;-84
2023/09/25 10:45:31;;;;;;;1434.27;755.53;;;19.50;99.90;;;;;;6215661;23;20016;-80
2023/09/25 10:47:57;;;;;;;1459.82;625.40;;;19.60;99.90;;;;;;6215381;23;20059;-82
2023/09/25 10:50:23;;;;;;;1459.93;624.70;;;19.70;99.90;;;;;;6215098;23;20020;-82
2023/09/25 10:52:48;;;;;;;1462.00;613.22;;;19.80;99.90;;;;;;6163888;23;20024;-82
2023/09/25 10:55:14;;;;;;;1468.80;630.47;;;19.80;99.90;;;;;;6188631;23;20020;-82
2023/09/25 10:57:42;;;;;;;1432.03;755.87;;;19.90;99.90;;;;;;6214919;23;20048;-82
2023/09/25 11:00:09;;;;;;;1471.95;625.60;;;20.00;99.90;;;;;;6188921;23;20375;-83
2023/09/25 11:02:35;;;;;;;1477.47;633.60;;;20.10;99.90;;;;;;6188342;23;20016;-86
2023/09/25 11:05:02;;;;;;;1479.15;633.53;;;20.20;99.90;;;;;;6188448;23;20099;-86
2023/09/25 11:07:28;;;;;;;1435.33;770.27;;;20.30;99.90;;;;;;6188138;23;20012;-83
2023/09/25 11:09:55;;;;;;;1438.60;775.30;;;20.50;99.90;;;;;;6215494;23;20024;-83
2023/09/25 11:12:21;;;;;;;1486.18;636.78;;;20.50;99.90;;;;;;6188331;23;20017;-84
2023/09/25 11:14:47;;;;;;;1436.73;777.77;;;20.60;99.90;;;;;;6163883;23;20028;-82
2023/09/25 11:17:13;;;;;;;1436.67;779.70;;;20.70;99.90;;;;;;6188094;23;20021;-82
2023/09/25 11:19:45;;;;;;;1484.93;632.58;;;20.70;99.90;;;;;;6215135;23;20012;-82
2023/09/25 11:22:11;;;;;;;1486.90;638.15;;;20.80;99.90;;;;;;6215097;23;20031;-81
2023/09/25 11:24:37;;;;;;;1494.85;639.65;;;20.80;99.90;;;;;;6188726;23;20019;-82
2023/09/25 11:27:09;;;;;;;1492.88;640.33;;;20.80;99.90;;;;;;6214962;23;20021;-81
2023/09/25 11:29:38;;;;;;;1499.43;645.63;;;21.00;99.90;;;;;;6214995;23;20048;-81
2023/09/25 11:32:04;;;;;;;1503.60;647.15;;;21.00;99.90;;;;;;6214934;23;20048;-82
2023/09/25 11:34:29;;;;;;;1509.37;646.17;;;21.10;99.90;;;;;;6188156;23;20016;-82
2023/09/25 11:36:58;;;;;;;1512.50;653.90;;;21.20;99.90;;;;;;6188455;23;20054;-84
2023/09/25 11:39:24;;;;;;;1508.30;647.90;;;21.30;99.90;;;;;;6214692;23;20099;-85
2023/09/25 11:41:51;;;;;;;1438.77;787.13;;;21.50;99.90;;;;;;6214632;23;20436;-82
2023/09/25 11:44:17;;;;;;;1512.87;639.97;;;21.70;99.90;;;;;;6189182;23;20387;-82
2023/09/25 11:46:43;;;;;;;1439.80;787.60;;;21.90;99.90;;;;;;6214808;23;20471;-84
2023/09/25 11:49:08;;;;;;;1519.70;656.10;;;21.80;99.90;;;;;;6214856;23;20032;-84
2023/09/25 11:51:34;;;;;;;1436.53;789.30;;;21.80;99.90;;;;;;6187880;23;20021;-84
2023/09/25 11:54:00;;;;;;;1508.60;649.07;;;21.70;99.90;;;;;;6214918;23;20017;-84
2023/09/25 11:56:26;;;;;;;1508.70;652.60;;;21.70;99.90;;;;;;6214920;23;20021;-83
2023/09/25 11:58:51;;;;;;;1433.53;803.07;;;21.80;99.90;;;;;;6214465;23;20032;-81